Latest Weather Observations for Norseman Airport

IDW60801

Issued at 5:34 pm WST Saturday 25 March 2017 (issued every 30 minutes, with the page automatically refreshed every 10 minutes)

About weather observations | Map of weather stations | Latest weather observations for WA | Other Formats
Station Details ID: 012009 Name: NORSEMAN AERO Lat: -32.21 Lon: 121.75 Height: 262.5 m
Data from the previous 72 hours. | See also: Recent months at Norseman Airport
Date/Time
WST
Temp
°C
App
Temp
°C
Dew
Point
°C
Rel
Hum
%
Delta-T
°C
Wind Press
QNH
hPa
Press
MSL
hPa
Rain since
9am
mm
Dir  Spd
km/h
Gust
km/h
Spd
kts
Gust
kts
25/05:30pm 21.1 22.4 17.1 78 2.5 ENE 6 9 3 5 1010.0 1009.0 0.0
25/05:00pm 21.1 22.1 16.9 77 2.6 NE 7 11 4 6 1009.9 1008.9 0.0
25/04:30pm 21.1 21.7 16.9 77 2.6 ENE 9 15 5 8 1009.7 1008.7 0.0
25/04:00pm 21.0 22.1 17.0 78 2.5 ESE 7 11 4 6 1009.5 1008.5 0.0
25/03:30pm 20.6 21.1 16.6 78 2.4 E 9 19 5 10 1009.5 1008.5 0.0
25/03:00pm 20.7 20.9 16.7 78 2.5 E 11 17 6 9 1009.8 1008.8 0.0
25/02:30pm 20.4 20.1 16.4 78 2.4 ENE 13 17 7 9 1010.2 1009.2 0.0
25/02:00pm 20.1 19.7 16.1 78 2.4 ESE 13 17 7 9 1010.5 1009.5 0.0
25/01:30pm 19.7 19.3 16.2 80 2.1 E 13 19 7 10 1010.9 1009.9 0.0
25/01:00pm 19.3 18.8 16.0 81 2.0 ESE 13 19 7 10 1011.4 1010.3 0.0
25/12:30pm 19.0 18.6 16.2 84 1.7 E 13 17 7 9 1011.9 1010.8 0.0
25/12:00pm 18.6 18.1 16.0 85 1.6 ESE 13 19 7 10 1012.4 1011.3 0.0
25/11:30am 18.2 18.3 16.4 89 1.1 SE 11 17 6 9 1013.2 1012.2 0.0
25/11:00am 17.5 17.5 16.2 92 0.8 ESE 11 17 6 9 1013.6 1012.6 0.0
25/10:30am 17.2 17.6 16.2 94 0.6 ESE 9 15 5 8 1013.9 1012.9 0.0
25/10:00am 17.0 16.9 15.9 93 0.7 E 11 15 6 8 1014.4 1013.4 0.0
25/09:30am 17.2 17.3 15.5 90 1.0 ESE 9 13 5 7 1014.5 1013.5 0.0
25/09:00am 17.0 16.5 14.8 87 1.3 E 11 17 6 9 1014.4 1013.4 0.2
25/08:30am 16.7 17.2 14.9 89 1.1 ESE 6 9 3 5 1014.5 1013.5 0.2
25/08:00am 16.5 16.4 14.9 90 0.9 ESE 9 13 5 7 1014.2 1013.2 0.2
25/07:30am 16.3 15.7 14.7 90 0.9 SSE 11 17 6 9 1014.1 1013.1 0.2
25/07:00am 16.1 15.5 14.6 91 0.9 SE 11 15 6 8 1014.2 1013.2 0.2
25/06:30am 16.1 15.6 14.8 92 0.8 SE 11 17 6 9 1014.0 1013.0 0.2
25/06:00am 16.1 15.2 14.8 92 0.8 SSE 13 19 7 10 1013.8 1012.8 0.2
25/05:30am 16.0 15.5 14.9 93 0.6 SSE 11 15 6 8 1013.7 1012.7 0.2
25/05:00am 16.1 15.6 15.0 93 0.6 SSE 11 17 6 9 1013.5 1012.5 0.2
25/04:30am 16.0 15.5 14.9 93 0.6 SSE 11 17 6 9 1013.3 1012.3 0.2
25/04:00am 15.9 16.2 14.9 94 0.6 SSE 7 11 4 6 1013.7 1012.7 0.2
25/03:30am 15.8 15.6 14.8 94 0.6 SSE 9 15 5 8 1013.6 1012.6 0.2
25/03:00am 15.7 15.6 14.9 95 0.5 SSE 9 15 5 8 1013.5 1012.5 0.2
25/02:30am 15.7 15.6 14.9 95 0.5 SE 9 19 5 10 1013.7 1012.7 0.2
25/02:00am 15.8 15.4 15.2 96 0.4 SE 11 17 6 9 1013.8 1012.8 0.2
25/01:30am 15.6 15.2 15.1 97 0.3 SE 11 15 6 8 1014.2 1013.2 0.2
25/01:00am 15.6 15.2 15.1 97 0.3 SE 11 17 6 9 1014.0 1013.0 0.2
25/12:30am 15.8 14.6 15.0 95 0.5 SE 15 20 8 11 1014.3 1013.3 0.2
25/12:00am 16.1 15.2 14.8 92 0.8 SSE 13 19 7 10 1014.3 1013.3 0.2
 
Date/Time
WST
Temp
°C
App
Temp
°C
Dew
Point
°C
Rel
Hum
%
Delta-T
°C
Wind Press
QNH
hPa
Press
MSL
hPa
Rain since
9am
mm
Dir  Spd
km/h
Gust
km/h
Spd
kts
Gust
kts
24/11:30pm 16.3 15.6 14.3 88 1.2 SE 11 17 6 9 1014.3 1013.3 0.2
24/11:00pm 16.9 15.8 14.2 84 1.6 SSE 13 17 7 9 1014.5 1013.5 0.2
24/10:30pm 17.2 17.1 13.9 81 1.9 SSE 7 11 4 6 1014.9 1013.9 0.2
24/10:00pm 17.7 16.9 14.0 79 2.1 SSE 11 19 6 10 1015.0 1014.0 0.2
24/09:30pm 18.3 17.0 13.8 75 2.6 SSE 13 20 7 11 1015.3 1014.2 0.2
24/09:00pm 18.6 16.2 13.7 73 2.8 SSE 19 30 10 16 1015.2 1014.1 0.2
24/08:30pm 19.2 16.7 14.0 72 3.0 SSE 20 33 11 18 1015.0 1014.0 0.2
24/08:00pm 20.0 16.4 14.1 69 3.4 SSE 26 39 14 21 1014.7 1013.7 0.2
24/07:30pm 20.9 18.7 14.3 66 3.9 SSE 19 30 10 16 1014.5 1013.5 0.2
24/07:00pm 21.7 19.8 14.1 62 4.5 SSE 17 26 9 14 1014.2 1013.2 0.2
24/06:30pm 22.3 21.5 13.9 59 4.9 SSE 11 15 6 8 1014.0 1013.0 0.2
24/06:00pm 23.2 21.7 13.1 53 5.9 SE 13 19 7 10 1013.8 1012.8 0.2
24/05:30pm 24.0 21.8 13.2 50 6.3 SE 17 20 9 11 1013.4 1012.4 0.2
24/05:00pm 24.8 23.0 13.4 49 6.7 SE 15 20 8 11 1013.1 1012.1 0.2
24/04:30pm 25.4 22.7 12.9 45 7.3 S 19 28 10 15 1012.7 1011.7 0.2
24/04:00pm 25.3 23.1 13.2 47 7.1 SSW 17 26 9 14 1012.6 1011.5 0.2
24/03:30pm 25.4 23.5 12.9 45 7.3 S 15 24 8 13 1013.1 1012.1 0.2
24/03:00pm 25.7 25.0 14.2 49 6.9 SSW 11 20 6 11 1013.3 1012.3 0.2
24/02:30pm 25.0 23.9 14.2 51 6.5 SSW 13 24 7 13 1013.2 1012.2 0.2
24/02:00pm 24.4 22.4 13.9 52 6.2 S 17 24 9 13 1013.1 1012.1 0.2
24/01:30pm 24.1 23.3 15.1 57 5.4 S 13 20 7 11 1013.3 1012.3 0.2
24/01:00pm 22.7 21.2 14.3 59 5.0 SSE 15 24 8 13 1013.9 1012.9 0.2
24/12:30pm 23.3 22.3 14.6 58 5.2 S 13 20 7 11 1014.2 1013.2 0.2
24/12:00pm 22.8 22.3 15.9 65 4.2 SW 13 22 7 12 1014.7 1013.7 0.2
24/11:30am 21.9 21.3 14.5 63 4.4 SSW 11 17 6 9 1015.0 1014.0 0.2
24/11:00am 21.9 22.3 16.4 71 3.4 SE 9 19 5 10 1015.5 1014.4 0.0
24/10:30am 20.3 19.4 14.9 71 3.2 SSW 13 22 7 12 1015.9 1014.8 0.0
24/10:00am 19.6 19.0 15.7 78 2.3 SSW 13 19 7 10 1016.1 1015.1 0.0
24/09:30am 18.3 18.9 15.9 86 1.4 S 7 11 4 6 1016.1 1015.1 0.0
24/09:00am 16.5 15.2 15.7 95 0.5 SSW 17 20 9 11 1015.5 1014.4 0.8
24/08:30am 15.9 15.0 15.9 100 0.0 SSW 15 19 8 10 1015.6 1014.5 0.8
24/08:00am 14.6 13.2 14.6 100 0.0 SSW 15 19 8 10 1015.5 1014.4 0.8
24/07:30am 14.2 13.5 14.2 100 0.0 SSW 11 15 6 8 1015.5 1014.4 0.8
24/07:00am 12.8 12.9 12.8 100 0.0 SW 4 11 2 6 1014.9 1013.9 0.8
24/06:30am 12.5 13.3 12.5 100 0.0 CALM 0 6 0 3 1014.5 1013.5 0.8
24/06:00am 12.8 12.9 12.8 100 0.0 SW 4 9 2 5 1014.0 1013.0 0.8
24/05:30am 14.1 12.6 14.1 100 0.0 SSW 15 19 8 10 1013.4 1012.4 0.8
24/05:00am 14.1 13.7 14.1 100 0.0 ENE 9 13 5 7 1013.0 1012.0 0.8
24/04:30am 13.9 11.9 13.9 100 0.0 SSW 17 20 9 11 1012.0 1010.9 0.8
24/04:00am 13.0 12.2 13.0 100 0.0 SSW 9 11 5 6 1012.6 1011.5 0.8
24/03:30am 12.8 13.7 12.8 100 0.0 CALM 0 0 0 0 1012.8 1011.8 0.8
24/03:00am 13.8 13.7 13.8 100 0.0 SSE 7 9 4 5 1012.6 1011.5 0.8
24/02:30am 14.1 14.1 14.1 100 0.0 SSW 7 9 4 5 1012.6 1011.5 0.8
24/02:00am 14.0 15.3 14.0 100 0.0 CALM 0 0 0 0 1013.0 1012.0 0.8
24/01:30am 14.6 16.1 14.6 100 0.0 CALM 0 0 0 0 1012.8 1011.8 0.8
24/01:00am 15.2 16.9 15.2 100 0.0 CALM 0 0 0 0 1012.7 1011.7 0.8
24/12:30am 15.5 16.9 15.5 100 0.0 NE 2 7 1 4 1012.7 1011.7 0.8
24/12:00am 15.8 17.7 15.8 100 0.0 CALM 0 9 0 5 1012.9 1011.9 0.8
 
Date/Time
WST
Temp
°C
App
Temp
°C
Dew
Point
°C
Rel
Hum
%
Delta-T
°C
Wind Press
QNH
hPa
Press
MSL
hPa
Rain since
9am
mm
Dir  Spd
km/h
Gust
km/h
Spd
kts
Gust
kts
23/11:30pm 16.3 18.4 16.3 100 0.0 CALM 0 0 0 0 1012.5 1011.4 0.8
23/11:00pm 16.7 18.6 16.7 100 0.0 S 2 6 1 3 1012.8 1011.8 0.8
23/10:30pm 17.4 19.0 16.8 96 0.4 SSW 4 9 2 5 1012.9 1011.9 0.8
23/10:00pm 18.4 19.7 17.1 92 0.8 SSW 6 9 3 5 1013.2 1012.2 0.8
23/09:30pm 19.5 19.4 16.9 85 1.6 SW 13 19 7 10 1013.1 1012.1 0.8
23/09:00pm 20.9 22.7 20.4 97 0.3 NNW 11 15 6 8 1012.5 1011.4 0.8
23/08:30pm 20.8 23.1 20.6 99 0.1 NW 9 9 5 5 1012.5 1011.4 0.0
23/08:00pm 20.1 22.0 19.8 98 0.2 NW 9 13 5 7 1012.2 1011.1 0.0
23/07:30pm 20.9 23.1 19.6 92 0.8 ENE 7 11 4 6 1011.3 1010.2 0.0
23/07:00pm 21.0 22.4 19.5 91 1.0 NE 11 13 6 7 1011.0 1010.0 0.0
23/06:30pm 21.5 22.8 19.2 87 1.5 ENE 11 15 6 8 1010.8 1009.8 0.0
23/06:00pm 21.9 21.7 19.3 85 1.7 NNE 19 26 10 14 1010.4 1009.4 0.0
23/05:30pm 22.6 22.1 19.2 81 2.2 NNE 20 28 11 15 1010.2 1009.2 0.0
23/05:00pm 22.5 22.6 19.1 81 2.2 NE 17 20 9 11 1010.2 1009.2 0.0
23/04:30pm 22.9 22.5 19.3 80 2.3 NNE 20 28 11 15 1010.0 1009.0 0.0
23/04:00pm 23.4 23.1 19.5 79 2.5 NNE 20 26 11 14 1010.1 1009.1 0.0
23/03:30pm 23.1 22.7 19.3 79 2.4 NNE 20 24 11 13 1010.1 1009.1 0.0
23/03:00pm 22.8 22.3 19.2 80 2.3 NNE 20 28 11 15 1010.2 1009.2 0.0
23/02:30pm 23.4 23.5 20.3 83 2.0 NNE 20 24 11 13 1010.3 1009.3 0.0
23/02:00pm 22.2 21.6 19.7 86 1.6 NNE 22 28 12 15 1010.7 1009.7 0.0
23/01:30pm 22.2 21.5 19.4 84 1.8 NNE 22 30 12 16 1010.7 1009.7 0.0
23/01:00pm 21.5 20.4 19.4 88 1.3 NNE 24 32 13 17 1010.9 1009.9 0.0
23/12:30pm 21.0 19.8 19.3 90 1.1 NNE 24 30 13 16 1011.3 1010.2 0.0
23/12:00pm 20.4 19.8 18.9 91 1.0 N 20 24 11 13 1011.7 1010.6 0.0
23/11:30am 20.1 19.1 18.9 93 0.8 N 22 26 12 14 1011.9 1010.8 0.0
23/11:00am 20.2 19.7 19.0 93 0.8 N 20 26 11 14 1012.2 1011.1 0.0
23/10:30am 19.8 19.4 19.0 95 0.5 N 19 22 10 12 1012.4 1011.3 0.0
23/10:00am 19.8 19.9 19.1 96 0.4 N 17 22 9 12 1012.5 1011.4 0.0
23/09:30am 19.4 20.0 19.4 100 0.0 NNE 15 19 8 10 1012.5 1011.4 0.0
23/09:00am 18.2 18.2 18.2 100 0.0 NNE 15 19 8 10 1012.8 1011.8 7.0
23/08:30am 17.9 18.2 17.9 100 0.0 NNE 13 17 7 9 1013.2 1012.2 7.0
23/08:00am 17.3 17.3 17.3 100 0.0 N 13 17 7 9 1013.1 1012.1 6.8
23/07:30am 17.3 17.0 17.3 100 0.0 NNE 15 19 8 10 1013.0 1012.0 6.6
23/07:00am 17.3 16.6 17.3 100 0.0 NNE 17 22 9 12 1013.0 1012.0 6.4
23/06:30am 17.2 16.1 17.2 100 0.0 NNE 19 26 10 14 1012.8 1011.8 6.4
23/06:00am 17.1 15.4 17.1 100 0.0 NNE 22 28 12 15 1012.6 1011.5 6.4
23/05:30am 17.0 16.2 17.0 100 0.0 NNE 17 20 9 11 1012.6 1011.5 6.4
23/05:00am 16.9 16.4 16.9 100 0.0 NNE 15 19 8 10 1012.0 1010.9 6.4
23/04:30am 16.9 15.6 16.7 99 0.1 NNE 19 24 10 13 1012.5 1011.4 6.4
23/04:00am 16.9 14.5 16.3 96 0.4 NE 24 33 13 18 1011.3 1010.2 6.2
23/03:30am 17.2 14.5 15.5 90 1.0 NNE 24 33 13 18 1012.1 1011.0 6.2
23/03:00am 17.2 15.1 16.1 93 0.7 NNE 22 30 12 16 1012.3 1011.2 6.2
23/02:30am 17.3 15.0 16.7 96 0.4 NNE 24 33 13 18 1012.5 1011.4 6.2
23/02:00am 17.4 15.8 17.4 100 0.0 NNE 22 30 12 16 1012.9 1011.9 6.2
23/01:30am 17.6 16.9 17.4 99 0.1 NNE 17 30 9 16 1012.7 1011.7 5.6
23/01:00am 17.5 16.8 17.3 99 0.1 N 17 20 9 11 1012.7 1011.7 5.4
23/12:30am 18.0 15.4 17.7 98 0.2 NNE 28 33 15 18 1012.8 1011.8 5.4
23/12:00am 18.0 16.6 18.0 100 0.0 N 22 30 12 16 1012.9 1011.9 5.4
 
Date/Time
WST
Temp
°C
App
Temp
°C
Dew
Point
°C
Rel
Hum
%
Delta-T
°C
Wind Press
QNH
hPa
Press
MSL
hPa
Rain since
9am
mm
Dir  Spd
km/h
Gust
km/h
Spd
kts
Gust
kts
22/11:30pm 17.9 17.1 17.9 100 0.0 NE 19 22 10 12 1011.5 1010.4 4.8
22/11:00pm 18.0 17.6 18.0 100 0.0 NE 17 22 9 12 1012.1 1011.0 4.4
22/10:30pm 18.0 18.0 18.0 100 0.0 NE 15 17 8 9 1012.7 1011.7 4.2
22/10:00pm 18.1 17.3 18.1 100 0.0 NNE 19 22 10 12 1013.0 1012.0 3.4
22/09:30pm 18.1 17.2 18.1 100 0.0 NNE 20 24 11 13 1012.9 1011.9 2.4
22/09:00pm 18.3 17.4 18.1 99 0.1 NNE 20 28 11 15 1013.1 1012.1 1.0
22/08:30pm 18.9 17.9 16.7 87 1.3 NE 17 24 9 13 1012.8 1011.8 0.0
22/08:00pm 19.3 17.8 16.2 82 1.9 NE 19 24 10 13 1012.2 1011.1 0.0
22/07:30pm 19.4 17.6 16.1 81 2.0 NE 20 24 11 13 1012.1 1011.0 0.0
22/07:00pm 19.5 17.3 16.0 80 2.1 NNE 22 30 12 16 1012.0 1010.9 0.0
22/06:30pm 19.6 18.1 16.3 81 2.0 NNE 19 24 10 13 1011.4 1010.3 0.0
22/06:00pm 19.7 17.9 16.0 79 2.2 NNE 20 35 11 19 1010.7 1009.7 0.0

Other Formats:

Comma delimited format used in spreadsheet applications
http://www.bom.gov.au/fwo/IDW60801/IDW60801.95642.axf

JavaScript Object Notation format (JSON) in row-major order
http://www.bom.gov.au/fwo/IDW60801/IDW60801.95642.json